createdAt,value
2022-09-11T00:03:03.925Z,95752.00
2022-09-11T00:07:06.675Z,95735.00
2022-09-11T00:11:11.419Z,95734.00
2022-09-11T00:15:15.474Z,95735.00
2022-09-11T00:19:21.806Z,95740.00
2022-09-11T00:23:27.064Z,95738.00
2022-09-11T00:27:29.726Z,95733.00
2022-09-11T00:31:35.340Z,95738.00
2022-09-11T00:35:38.063Z,95733.00
2022-09-11T00:39:40.804Z,95742.00
2022-09-11T00:43:56.575Z,95732.00
2022-09-11T00:48:01.219Z,95739.00
2022-09-11T00:52:08.868Z,95727.00
2022-09-11T00:56:12.366Z,95725.00
2022-09-11T01:00:15.696Z,95722.00
2022-09-11T01:04:21.598Z,95714.00
2022-09-11T01:08:24.274Z,95715.00
2022-09-11T01:12:36.378Z,95715.00
2022-09-11T01:16:42.073Z,95710.00
2022-09-11T01:21:01.991Z,95714.00
2022-09-11T01:25:17.339Z,95711.00
2022-09-11T01:29:27.494Z,95721.00
2022-09-11T01:33:31.621Z,95704.00
2022-09-11T01:37:41.511Z,95707.00
2022-09-11T01:41:50.216Z,95709.00
2022-09-11T01:45:56.331Z,95711.00
2022-09-11T01:50:03.461Z,95708.00
2022-09-11T01:54:11.721Z,95710.00
2022-09-11T01:58:20.505Z,95705.00
2022-09-11T02:02:30.497Z,95704.00
2022-09-11T02:06:38.755Z,95704.00
2022-09-11T02:10:46.338Z,95684.00
2022-09-11T02:14:50.958Z,95705.00
2022-09-11T02:18:59.827Z,95700.00
2022-09-11T02:23:02.925Z,95699.00
2022-09-11T02:27:09.255Z,95697.00
2022-09-11T02:31:12.203Z,95702.00
2022-09-11T02:35:16.857Z,95709.00
2022-09-11T02:39:35.913Z,95705.00
2022-09-11T02:43:51.750Z,95696.00
2022-09-11T02:48:03.134Z,95702.00
2022-09-11T02:52:20.018Z,95690.00
2022-09-11T02:56:30.812Z,95694.00
2022-09-11T03:00:35.167Z,95687.00
2022-09-11T03:04:38.232Z,95687.00
2022-09-11T03:08:42.583Z,95682.00
2022-09-11T03:12:45.355Z,95678.00
2022-09-11T03:16:48.599Z,95676.00
2022-09-11T03:20:51.765Z,95681.00
2022-09-11T03:24:56.658Z,95675.00
2022-09-11T03:29:01.805Z,95685.00
2022-09-11T03:33:07.242Z,95685.00
2022-09-11T03:37:11.162Z,95688.00
2022-09-11T03:41:15.326Z,95680.00
2022-09-11T03:45:18.070Z,95676.00
2022-09-11T03:49:21.159Z,95677.00
2022-09-11T03:53:25.678Z,95674.00
2022-09-11T03:57:29.946Z,95677.00
2022-09-11T04:01:32.849Z,95677.00
2022-09-11T04:05:35.633Z,95677.00
2022-09-11T04:09:38.379Z,95673.00
2022-09-11T04:13:44.109Z,95674.00
2022-09-11T04:17:50.051Z,95681.00
2022-09-11T04:21:53.015Z,95680.00
2022-09-11T04:25:58.109Z,95676.00
2022-09-11T04:30:02.254Z,95682.00
2022-09-11T04:34:05.476Z,95689.00
2022-09-11T04:38:11.898Z,95682.00
2022-09-11T04:42:15.011Z,95684.00
2022-09-11T04:46:21.378Z,95682.00
2022-09-11T04:50:24.135Z,95675.00
2022-09-11T04:54:46.433Z,95686.00
2022-09-11T04:58:55.070Z,95675.00
2022-09-11T05:03:01.879Z,95683.00
2022-09-11T05:07:05.215Z,95676.00
2022-09-11T05:11:07.903Z,95682.00
2022-09-11T05:15:11.951Z,95693.00
2022-09-11T05:19:16.139Z,95698.00
2022-09-11T05:23:20.933Z,95697.00
2022-09-11T05:27:23.885Z,95700.00
2022-09-11T05:31:28.788Z,95700.00
2022-09-11T05:35:33.110Z,95704.00
2022-09-11T05:39:36.379Z,95704.00
2022-09-11T05:43:41.419Z,95709.00
2022-09-11T05:47:44.262Z,95711.00
2022-09-11T05:51:48.313Z,95704.00
2022-09-11T05:55:52.346Z,95711.00
2022-09-11T05:59:55.566Z,95725.00
2022-09-11T06:03:58.433Z,95725.00
2022-09-11T06:08:04.543Z,95735.00
2022-09-11T06:12:07.690Z,95742.00
2022-09-11T06:16:15.953Z,95745.00
2022-09-11T06:20:20.879Z,95743.00
2022-09-11T06:24:28.447Z,95743.00
2022-09-11T06:28:32.662Z,95748.00
2022-09-11T06:32:35.415Z,95759.00
2022-09-11T06:36:38.791Z,95753.00
2022-09-11T06:40:44.929Z,95757.00
2022-09-11T06:44:50.832Z,95750.00
2022-09-11T06:48:54.770Z,95752.00
2022-09-11T06:53:01.048Z,95766.00
2022-09-11T06:57:07.346Z,95757.00
2022-09-11T07:01:13.473Z,95754.00
2022-09-11T07:05:17.997Z,95763.00
2022-09-11T07:09:24.155Z,95778.00
2022-09-11T07:13:36.760Z,95776.00
2022-09-11T07:17:41.404Z,95766.00
2022-09-11T07:21:47.112Z,95765.00
2022-09-11T07:25:50.628Z,95785.00
2022-09-11T07:29:54.774Z,95782.00
2022-09-11T07:33:57.962Z,95784.00
2022-09-11T07:38:01.762Z,95793.00
2022-09-11T07:42:07.247Z,95804.00
2022-09-11T07:46:11.629Z,95798.00
2022-09-11T07:50:15.807Z,95804.00
2022-09-11T07:54:19.486Z,95800.00
2022-09-11T07:58:24.094Z,95812.00
2022-09-11T08:02:28.371Z,95814.00
2022-09-11T08:06:33.377Z,95815.00
2022-09-11T08:10:40.949Z,95817.00
2022-09-11T08:14:44.026Z,95822.00
2022-09-11T08:18:54.861Z,95826.00
2022-09-11T08:22:58.815Z,95834.00
2022-09-11T08:27:01.705Z,95844.00
2022-09-11T08:31:07.560Z,95843.00
2022-09-11T08:35:12.794Z,95860.00
2022-09-11T08:39:16.350Z,95862.00
2022-09-11T08:43:27.473Z,95866.00
2022-09-11T08:47:35.637Z,95862.00
2022-09-11T08:51:40.370Z,95864.00
2022-09-11T08:55:46.741Z,95871.00
2022-09-11T09:00:05.400Z,95872.00
2022-09-11T09:04:28.242Z,95872.00
2022-09-11T09:08:44.795Z,95893.00
2022-09-11T09:12:57.774Z,95885.00
2022-09-11T09:17:03.179Z,95882.00
2022-09-11T09:21:13.966Z,95877.00
2022-09-11T09:25:22.523Z,95877.00
2022-09-11T09:29:36.823Z,95870.00
2022-09-11T09:33:48.027Z,95877.00
2022-09-11T09:37:51.552Z,95875.00
2022-09-11T09:42:10.992Z,95888.00
2022-09-11T09:46:20.937Z,95882.00
2022-09-11T09:50:29.210Z,95887.00
2022-09-11T09:54:36.270Z,95888.00
2022-09-11T09:58:47.734Z,95882.00
2022-09-11T10:02:53.916Z,95866.00
2022-09-11T10:07:07.944Z,95885.00
2022-09-11T10:11:13.382Z,95887.00
2022-09-11T10:15:22.407Z,95899.00
2022-09-11T10:19:42.155Z,95902.00
2022-09-11T10:23:48.128Z,95910.00
2022-09-11T10:28:03.792Z,95906.00
2022-09-11T10:32:16.709Z,95908.00
2022-09-11T10:36:25.031Z,95910.00
2022-09-11T10:40:27.766Z,95915.00
2022-09-11T10:44:30.985Z,95910.00
2022-09-11T10:48:35.174Z,95900.00
2022-09-11T10:52:49.440Z,95885.00
2022-09-11T10:57:05.805Z,95864.00
2022-09-11T11:01:09.466Z,95909.00
2022-09-11T11:05:21.182Z,95909.00
2022-09-11T11:09:41.818Z,95916.00
2022-09-11T11:13:58.692Z,95918.00
2022-09-11T11:18:23.594Z,95921.00
2022-09-11T11:22:42.885Z,95922.00
2022-09-11T11:27:00.448Z,95917.00
2022-09-11T11:31:15.699Z,95919.00
2022-09-11T11:35:23.725Z,95927.00
2022-09-11T11:39:32.874Z,95927.00
2022-09-11T11:43:41.026Z,95949.00
2022-09-11T11:47:47.219Z,95960.00
2022-09-11T11:51:53.241Z,95951.00
2022-09-11T11:56:04.514Z,95964.00
2022-09-11T12:00:10.814Z,95978.00
2022-09-11T12:04:30.331Z,95964.00
2022-09-11T12:08:33.094Z,95974.00
2022-09-11T12:12:47.634Z,95973.00
2022-09-11T12:16:52.314Z,95966.00
2022-09-11T12:21:34.627Z,95960.00
2022-09-11T12:26:03.687Z,95951.00
2022-09-11T12:30:21.249Z,95955.00
2022-09-11T12:34:25.994Z,95944.00
2022-09-11T12:38:37.984Z,95954.00
2022-09-11T12:42:49.043Z,95932.00
2022-09-11T12:47:16.464Z,95938.00
2022-09-11T12:51:22.258Z,95948.00
2022-09-11T12:55:39.661Z,95946.00
2022-09-11T12:59:46.547Z,95938.00
2022-09-11T13:03:56.962Z,95944.00
2022-09-11T13:08:04.201Z,95947.00
2022-09-11T13:12:55.810Z,95941.00
2022-09-11T13:17:00.175Z,95941.00
2022-09-11T13:21:15.124Z,95938.00
2022-09-11T13:25:20.238Z,95913.00
2022-09-11T13:29:26.658Z,95931.00
2022-09-11T13:33:31.006Z,95939.00
2022-09-11T13:37:38.945Z,95939.00
2022-09-11T13:41:44.774Z,95942.00
2022-09-11T13:45:47.572Z,95952.00
2022-09-11T13:49:53.237Z,95952.00
2022-09-11T13:54:08.923Z,95954.00
2022-09-11T13:58:24.128Z,95947.00
2022-09-11T14:02:37.964Z,95935.00
2022-09-11T14:06:46.160Z,95946.00
2022-09-11T14:10:52.039Z,95937.00
2022-09-11T14:15:00.240Z,95936.00
2022-09-11T14:19:08.250Z,95929.00
2022-09-11T14:23:19.978Z,95936.00
2022-09-11T14:27:38.393Z,95932.00
2022-09-11T14:31:44.055Z,95928.00
2022-09-11T14:35:48.384Z,95936.00
2022-09-11T14:39:55.764Z,95932.00
2022-09-11T14:44:00.615Z,95926.00
2022-09-11T14:48:03.694Z,95933.00
2022-09-11T14:52:07.609Z,95935.00
2022-09-11T14:56:10.423Z,95936.00
2022-09-11T15:00:17.162Z,95936.00
2022-09-11T15:04:22.879Z,95929.00
2022-09-11T15:08:26.677Z,95926.00
2022-09-11T15:12:30.207Z,95920.00
2022-09-11T15:16:34.703Z,95920.00
2022-09-11T15:20:37.804Z,95923.00
2022-09-11T15:24:41.022Z,95920.00
2022-09-11T15:28:43.710Z,95916.00
2022-09-11T15:32:48.138Z,95924.00
2022-09-11T15:36:51.168Z,95919.00
2022-09-11T15:40:56.223Z,95924.00
2022-09-11T15:44:58.925Z,95925.00
2022-09-11T15:49:02.970Z,95927.00
2022-09-11T15:53:05.879Z,95922.00
2022-09-11T15:57:08.715Z,95914.00
2022-09-11T16:01:18.117Z,95908.00
2022-09-11T16:05:22.967Z,95907.00
2022-09-11T16:09:28.128Z,95911.00
2022-09-11T16:13:31.665Z,95909.00
2022-09-11T16:17:34.370Z,95904.00
2022-09-11T16:21:38.412Z,95903.00
2022-09-11T16:25:42.298Z,95910.00
2022-09-11T16:30:20.266Z,95912.00
2022-09-11T16:34:08.268Z,95904.00
2022-09-11T16:38:12.482Z,95901.00
2022-09-11T16:42:15.181Z,95900.00
2022-09-11T16:46:20.048Z,95895.00
2022-09-11T16:50:23.530Z,95903.00
2022-09-11T16:54:27.592Z,95892.00
2022-09-11T16:58:30.302Z,95908.00
2022-09-11T17:02:32.985Z,95900.00
2022-09-11T17:06:35.664Z,95901.00
2022-09-11T17:10:43.474Z,95891.00
2022-09-11T17:14:46.171Z,95894.00
2022-09-11T17:18:49.702Z,95893.00
2022-09-11T17:22:58.092Z,95894.00
2022-09-11T17:27:02.661Z,95886.00
2022-09-11T17:31:07.626Z,95900.00
2022-09-11T17:35:11.582Z,95903.00
2022-09-11T17:39:14.283Z,95896.00
2022-09-11T17:43:18.330Z,95892.00
2022-09-11T17:47:21.003Z,95895.00
2022-09-11T17:51:26.049Z,95898.00
2022-09-11T17:55:31.875Z,95899.00
2022-09-11T17:59:36.653Z,95901.00
2022-09-11T18:03:39.354Z,95908.00
2022-09-11T18:07:42.511Z,95908.00
2022-09-11T18:11:47.595Z,95907.00
2022-09-11T18:15:51.942Z,95914.00
2022-09-11T18:19:54.640Z,95916.00
2022-09-11T18:23:59.685Z,95922.00
2022-09-11T18:28:03.610Z,95917.00
2022-09-11T18:32:07.762Z,95924.00
2022-09-11T18:36:13.337Z,95922.00
2022-09-11T18:40:16.054Z,95922.00
2022-09-11T18:44:20.733Z,95917.00
2022-09-11T18:48:24.926Z,95920.00
2022-09-11T18:52:29.791Z,95916.00
2022-09-11T18:56:33.239Z,95915.00
2022-09-11T19:00:37.747Z,95915.00
2022-09-11T19:04:42.190Z,95915.00
2022-09-11T19:08:46.569Z,95908.00
2022-09-11T19:12:50.099Z,95915.00
2022-09-11T19:16:53.864Z,95918.00
2022-09-11T19:21:03.690Z,95910.00
2022-09-11T19:25:09.933Z,95910.00
2022-09-11T19:29:15.665Z,95917.00
2022-09-11T19:33:18.330Z,95911.00
2022-09-11T19:37:23.054Z,95923.00
2022-09-11T19:41:27.437Z,95929.00
2022-09-11T19:45:30.107Z,95927.00
2022-09-11T19:49:33.002Z,95933.00
2022-09-11T19:53:39.016Z,95925.00
2022-09-11T19:57:42.051Z,95922.00
2022-09-11T20:01:44.993Z,95914.00
2022-09-11T20:05:48.459Z,95916.00
2022-09-11T20:09:52.507Z,95919.00
2022-09-11T20:13:58.222Z,95916.00
2022-09-11T20:18:00.898Z,95916.00
2022-09-11T20:22:03.630Z,95914.00
2022-09-11T20:26:16.773Z,95915.00
2022-09-11T20:30:19.997Z,95925.00
2022-09-11T20:34:27.725Z,95915.00
2022-09-11T20:38:30.602Z,95911.00
2022-09-11T20:42:34.638Z,95911.00
2022-09-11T20:46:37.448Z,95902.00
2022-09-11T20:50:40.154Z,95912.00
2022-09-11T20:54:43.495Z,95906.00
2022-09-11T20:58:47.758Z,95898.00
2022-09-11T21:02:50.458Z,95897.00
2022-09-11T21:06:54.138Z,95895.00
2022-09-11T21:10:56.828Z,95898.00
2022-09-11T21:15:00.934Z,95905.00
2022-09-11T21:19:04.933Z,95903.00
2022-09-11T21:23:07.758Z,95897.00
2022-09-11T21:27:10.903Z,95912.00
2022-09-11T21:31:15.153Z,95909.00
2022-09-11T21:35:18.143Z,95908.00
2022-09-11T21:39:20.899Z,95901.00
2022-09-11T21:43:23.622Z,95901.00
2022-09-11T21:47:27.671Z,95905.00
2022-09-11T21:51:30.457Z,95902.00
2022-09-11T21:55:37.661Z,95903.00
2022-09-11T21:59:40.379Z,95886.00
2022-09-11T22:03:44.824Z,95888.00
2022-09-11T22:07:47.571Z,95891.00
2022-09-11T22:11:50.426Z,95881.00
2022-09-11T22:15:53.669Z,95890.00
2022-09-11T22:19:58.134Z,95886.00
2022-09-11T22:24:00.827Z,95890.00
2022-09-11T22:28:04.042Z,95881.00
2022-09-11T22:32:07.655Z,95878.00
2022-09-11T22:36:14.222Z,95886.00
2022-09-11T22:40:17.105Z,95878.00
2022-09-11T22:44:19.973Z,95873.00
2022-09-11T22:48:22.937Z,95879.00
2022-09-11T22:52:27.027Z,95883.00
2022-09-11T22:56:29.745Z,95871.00
2022-09-11T23:00:32.700Z,95866.00
2022-09-11T23:04:35.403Z,95858.00
2022-09-11T23:08:39.536Z,95864.00
2022-09-11T23:12:43.499Z,95865.00
2022-09-11T23:16:46.190Z,95867.00
2022-09-11T23:20:53.247Z,95859.00
2022-09-11T23:24:57.306Z,95857.00
2022-09-11T23:29:00.061Z,95855.00
2022-09-11T23:33:02.734Z,95850.00
2022-09-11T23:37:05.560Z,95848.00
2022-09-11T23:41:09.638Z,95848.00
2022-09-11T23:45:12.923Z,95843.00
2022-09-11T23:49:15.978Z,95839.00
2022-09-11T23:53:18.677Z,95846.00
2022-09-11T23:57:22.730Z,95835.00
